This is the latest recevied weather packets stored in our database for station/object WC4PEM-1. If no packets are shown the sender has not sent any weather packets the latest 10 day(s).
| Time | Temp. | Humidity | Pressure | Rain* | Wind** | Luminosity | Snow |
|---|---|---|---|---|---|---|---|
| 1787779445 | 30.56° C | 65% | 1013.2 hPa | 0 mm | - | 169 W/m² | - |
| 1787779207 | 30.56° C | 65% | 1013.2 hPa | 0 mm | - | 169 W/m² | - |
| 1787779038 | 30.56° C | 65% | 1013.2 hPa | 0 mm | - | 165 W/m² | - |
| 1787778907 | 30.56° C | 65% | 1013.2 hPa | 0 mm | - | 165 W/m² | - |
| 1787778607 | 30.56° C | 63% | 1013.2 hPa | 0 mm | - | 139 W/m² | - |
| 1787778307 | 30.56° C | 64% | 1013.3 hPa | 0 mm | - | 267 W/m² | - |
| 1787778007 | 30.56° C | 62% | 1013.5 hPa | 0 mm | - | 88 W/m² | - |
| 1787777707 | 32.78° C | 59% | 1013.5 hPa | 0 mm | - | 100 W/m² | - |
| 1787777407 | 34.44° C | 55% | 1013.3 hPa | 0 mm | - | 158 W/m² | - |
| 1787777107 | 34.44° C | 57% | 1013.6 hPa | 0 mm | - | 281 W/m² | - |
| 1787776807 | 34.44° C | 57% | 1013.5 hPa | 0 mm | - | 186 W/m² | - |
| 1787776507 | 33.89° C | 58% | 1013.4 hPa | 0 mm | - | 710 W/m² | - |
| 1787776207 | 33.33° C | 59% | 1013.4 hPa | 0 mm | - | 715 W/m² | - |
| 1787775907 | 33.33° C | 60% | 1013.4 hPa | 0 mm | - | 308 W/m² | - |
| 1787775607 | 33.33° C | 59% | 1013.4 hPa | 0 mm | - | 165 W/m² | - |
| 1787775307 | 33.33° C | 58% | 1013.5 hPa | 0 mm | - | 149 W/m² | - |
| 1787775007 | 32.78° C | 60% | 1013.5 hPa | 0 mm | - | 155 W/m² | - |
| 1787774707 | 32.78° C | 58% | 1013.6 hPa | 0 mm | - | 158 W/m² | - |
| 1787774407 | 32.78° C | 57% | 1013.6 hPa | 0 mm | - | 155 W/m² | - |
| 1787774107 | 33.33° C | 59% | 1013.6 hPa | 0 mm | - | 162 W/m² | - |
| 1787773807 | 33.33° C | 57% | 1013.6 hPa | 0 mm | - | 204 W/m² | - |
| 1787773507 | 33.33° C | 57% | 1013.7 hPa | 0 mm | - | 188 W/m² | - |
| 1787773207 | 33.33° C | 57% | 1013.8 hPa | 0 mm | - | 868 W/m² | - |
| 1787772907 | 33.33° C | 59% | 1014 hPa | 0 mm | - | 865 W/m² | - |
| 1787772607 | 32.78° C | 60% | 1014 hPa | 0.25 mm | - | 889 W/m² | - |
* Rain latest hour (hover to see other rain measurements)
** Current wind speed in m/s (hover to see current wind gust speed)